Terminal Aerodrome Forecast
Issued by NWS

Home | Current Version | Previous Version | Text Only | Print | Product List | Glossary On
Versions: 1 2 3 4 5 6 7 8 9 10 11 12 13 14 15 16 17
000
FTAK31 PAJN 040500
TAFAWG
TAF
PAWG 040538Z 0406/0506 VRB05KT P6SM FEW060 SCT120
     FM041700 34010KT P6SM SKC
      AMD LTD TO CLD VIS AND WIND TIL 041500=

USA.gov is the U.S. government's official web portal to all federal, state and local government web resources and services.